Search for airport 
image banner adimage banner adimage banner ad
image banner ad

94CL - Loma Linda University Medical Center

Located in Loma Linda, United States

ICAO - 94CL, IATA -

Data provided by Airmate  

General information

Coordinates: N34°3'1" W117°15'51"
Elevation is 1223 feet MSL.
Magnetic variation is 14° East
View others Airports in California

Operational data

Special qualification required
Current time UTC:
Current local time:
Weather at : KSBD - San Bernardino Intl ( 6 km )
METAR: KSBD 210940Z AUTO 24005KT 10SM CLR 19/13 A2993 RMK AO2 T01860130
TAF: KSBD 210520Z 2106/2206 24005KT P6SM SKC FM212000 24011KT P6SM SKC FM220500 25005KT P6SM FEW150
View NOTAMs / SUP AIP / TFR affecting this airport [VIEW]
Communications frequencies: [VIEW]

Runways:

Airport contact information

Address: Loma Linda United States

Satellite view of 94CL